sensor_id;sensor_type;location;lat;lon;timestamp;P1;durP1;ratioP1;P2;durP2;ratioP2
39620;SDS011;25309;48.686;9.170;2023-05-07T00:02:09;6.17;;;3.03;;
39620;SDS011;25309;48.686;9.170;2023-05-07T00:04:36;3.87;;;2.67;;
39620;SDS011;25309;48.686;9.170;2023-05-07T00:07:05;2.93;;;2.60;;
39620;SDS011;25309;48.686;9.170;2023-05-07T00:09:32;3.30;;;2.83;;
39620;SDS011;25309;48.686;9.170;2023-05-07T00:11:59;3.20;;;2.90;;
39620;SDS011;25309;48.686;9.170;2023-05-07T00:14:26;3.87;;;3.00;;
39620;SDS011;25309;48.686;9.170;2023-05-07T00:16:52;4.43;;;2.97;;
39620;SDS011;25309;48.686;9.170;2023-05-07T00:19:21;5.23;;;3.00;;
39620;SDS011;25309;48.686;9.170;2023-05-07T00:21:48;3.87;;;2.73;;
39620;SDS011;25309;48.686;9.170;2023-05-07T00:24:15;3.80;;;2.83;;
39620;SDS011;25309;48.686;9.170;2023-05-07T00:26:42;4.67;;;3.10;;
39620;SDS011;25309;48.686;9.170;2023-05-07T00:29:08;3.47;;;2.80;;
39620;SDS011;25309;48.686;9.170;2023-05-07T00:31:35;4.53;;;3.07;;
39620;SDS011;25309;48.686;9.170;2023-05-07T00:34:02;3.33;;;2.77;;
39620;SDS011;25309;48.686;9.170;2023-05-07T00:36:30;4.23;;;3.13;;
39620;SDS011;25309;48.686;9.170;2023-05-07T00:38:58;3.70;;;2.77;;
39620;SDS011;25309;48.686;9.170;2023-05-07T00:41:26;4.57;;;2.73;;
39620;SDS011;25309;48.686;9.170;2023-05-07T00:43:53;3.80;;;3.10;;
39620;SDS011;25309;48.686;9.170;2023-05-07T00:46:20;3.97;;;2.93;;
39620;SDS011;25309;48.686;9.170;2023-05-07T00:48:48;3.93;;;2.87;;
39620;SDS011;25309;48.686;9.170;2023-05-07T00:51:16;3.33;;;3.03;;
39620;SDS011;25309;48.686;9.170;2023-05-07T00:53:45;3.80;;;3.07;;
39620;SDS011;25309;48.686;9.170;2023-05-07T00:56:12;3.53;;;3.00;;
39620;SDS011;25309;48.686;9.170;2023-05-07T00:58:40;3.43;;;2.97;;
39620;SDS011;25309;48.686;9.170;2023-05-07T01:01:07;5.93;;;3.10;;
39620;SDS011;25309;48.686;9.170;2023-05-07T01:03:34;4.30;;;3.20;;
39620;SDS011;25309;48.686;9.170;2023-05-07T01:06:01;3.37;;;2.80;;
39620;SDS011;25309;48.686;9.170;2023-05-07T01:08:30;3.30;;;2.70;;
39620;SDS011;25309;48.686;9.170;2023-05-07T01:10:59;3.47;;;2.77;;
39620;SDS011;25309;48.686;9.170;2023-05-07T01:13:27;4.47;;;3.00;;
39620;SDS011;25309;48.686;9.170;2023-05-07T01:15:54;4.37;;;3.00;;
39620;SDS011;25309;48.686;9.170;2023-05-07T01:18:21;4.87;;;2.77;;
39620;SDS011;25309;48.686;9.170;2023-05-07T01:20:48;3.93;;;2.80;;
39620;SDS011;25309;48.686;9.170;2023-05-07T01:23:17;3.13;;;2.80;;
39620;SDS011;25309;48.686;9.170;2023-05-07T01:25:50;3.60;;;3.00;;
39620;SDS011;25309;48.686;9.170;2023-05-07T01:28:19;5.23;;;2.90;;
39620;SDS011;25309;48.686;9.170;2023-05-07T01:30:46;3.20;;;2.80;;
39620;SDS011;25309;48.686;9.170;2023-05-07T01:33:16;4.00;;;2.90;;
39620;SDS011;25309;48.686;9.170;2023-05-07T01:35:46;3.97;;;2.70;;
39620;SDS011;25309;48.686;9.170;2023-05-07T01:38:16;3.50;;;2.70;;
39620;SDS011;25309;48.686;9.170;2023-05-07T01:40:44;3.93;;;2.90;;
39620;SDS011;25309;48.686;9.170;2023-05-07T01:43:12;4.27;;;2.93;;
39620;SDS011;25309;48.686;9.170;2023-05-07T01:45:39;3.87;;;3.17;;
39620;SDS011;25309;48.686;9.170;2023-05-07T01:48:07;5.03;;;3.30;;
39620;SDS011;25309;48.686;9.170;2023-05-07T01:50:36;3.90;;;3.10;;
39620;SDS011;25309;48.686;9.170;2023-05-07T01:53:04;3.90;;;3.20;;
39620;SDS011;25309;48.686;9.170;2023-05-07T01:55:32;4.60;;;3.07;;
39620;SDS011;25309;48.686;9.170;2023-05-07T01:57:59;4.97;;;3.47;;
39620;SDS011;25309;48.686;9.170;2023-05-07T02:00:26;4.10;;;3.17;;
39620;SDS011;25309;48.686;9.170;2023-05-07T02:02:54;4.30;;;3.23;;
39620;SDS011;25309;48.686;9.170;2023-05-07T02:05:38;4.47;;;3.13;;
39620;SDS011;25309;48.686;9.170;2023-05-07T02:08:15;4.07;;;2.97;;
39620;SDS011;25309;48.686;9.170;2023-05-07T02:10:43;4.67;;;3.00;;
39620;SDS011;25309;48.686;9.170;2023-05-07T02:13:10;4.53;;;3.40;;
39620;SDS011;25309;48.686;9.170;2023-05-07T02:15:37;4.50;;;2.90;;
39620;SDS011;25309;48.686;9.170;2023-05-07T02:18:05;4.67;;;3.37;;
39620;SDS011;25309;48.686;9.170;2023-05-07T02:20:33;3.73;;;2.90;;
39620;SDS011;25309;48.686;9.170;2023-05-07T02:23:01;3.33;;;2.87;;
39620;SDS011;25309;48.686;9.170;2023-05-07T02:25:29;3.63;;;3.20;;
39620;SDS011;25309;48.686;9.170;2023-05-07T02:27:58;4.27;;;3.00;;
39620;SDS011;25309;48.686;9.170;2023-05-07T02:30:40;4.73;;;3.67;;
39620;SDS011;25309;48.686;9.170;2023-05-07T02:33:08;3.70;;;2.90;;
39620;SDS011;25309;48.686;9.170;2023-05-07T02:35:35;6.50;;;3.00;;
39620;SDS011;25309;48.686;9.170;2023-05-07T02:38:02;4.20;;;3.17;;
39620;SDS011;25309;48.686;9.170;2023-05-07T02:40:30;4.47;;;3.00;;
39620;SDS011;25309;48.686;9.170;2023-05-07T02:43:01;3.73;;;3.10;;
39620;SDS011;25309;48.686;9.170;2023-05-07T02:45:28;3.33;;;2.70;;
39620;SDS011;25309;48.686;9.170;2023-05-07T02:47:55;4.97;;;3.17;;
39620;SDS011;25309;48.686;9.170;2023-05-07T02:50:22;3.90;;;3.10;;
39620;SDS011;25309;48.686;9.170;2023-05-07T02:52:49;3.83;;;2.83;;
39620;SDS011;25309;48.686;9.170;2023-05-07T02:55:16;4.13;;;2.80;;
39620;SDS011;25309;48.686;9.170;2023-05-07T02:57:43;3.73;;;2.67;;
39620;SDS011;25309;48.686;9.170;2023-05-07T03:00:13;3.87;;;2.47;;
39620;SDS011;25309;48.686;9.170;2023-05-07T03:02:48;4.27;;;2.57;;
39620;SDS011;25309;48.686;9.170;2023-05-07T03:05:15;3.60;;;2.80;;
39620;SDS011;25309;48.686;9.170;2023-05-07T03:07:42;3.40;;;2.73;;
39620;SDS011;25309;48.686;9.170;2023-05-07T03:10:12;4.30;;;2.70;;
39620;SDS011;25309;48.686;9.170;2023-05-07T03:12:39;3.80;;;2.80;;
39620;SDS011;25309;48.686;9.170;2023-05-07T03:15:08;4.87;;;2.57;;
39620;SDS011;25309;48.686;9.170;2023-05-07T03:17:38;3.93;;;2.70;;
39620;SDS011;25309;48.686;9.170;2023-05-07T03:20:05;3.23;;;2.43;;
39620;SDS011;25309;48.686;9.170;2023-05-07T03:22:33;3.57;;;2.80;;
39620;SDS011;25309;48.686;9.170;2023-05-07T03:25:01;2.90;;;2.60;;
39620;SDS011;25309;48.686;9.170;2023-05-07T03:27:27;3.23;;;2.43;;
39620;SDS011;25309;48.686;9.170;2023-05-07T03:29:54;4.13;;;2.60;;
39620;SDS011;25309;48.686;9.170;2023-05-07T03:32:21;2.83;;;2.27;;
39620;SDS011;25309;48.686;9.170;2023-05-07T03:34:50;2.80;;;2.23;;
39620;SDS011;25309;48.686;9.170;2023-05-07T03:37:17;3.77;;;2.80;;
39620;SDS011;25309;48.686;9.170;2023-05-07T03:39:45;3.80;;;2.67;;
39620;SDS011;25309;48.686;9.170;2023-05-07T03:42:12;3.40;;;2.43;;
39620;SDS011;25309;48.686;9.170;2023-05-07T03:44:39;3.37;;;2.50;;
39620;SDS011;25309;48.686;9.170;2023-05-07T03:47:06;3.03;;;2.73;;
39620;SDS011;25309;48.686;9.170;2023-05-07T03:49:34;3.87;;;2.70;;
39620;SDS011;25309;48.686;9.170;2023-05-07T03:52:02;3.70;;;2.43;;
39620;SDS011;25309;48.686;9.170;2023-05-07T03:54:31;3.60;;;2.57;;
39620;SDS011;25309;48.686;9.170;2023-05-07T03:56:58;3.97;;;2.70;;
39620;SDS011;25309;48.686;9.170;2023-05-07T03:59:26;2.63;;;2.43;;
39620;SDS011;25309;48.686;9.170;2023-05-07T04:01:52;3.50;;;2.40;;
39620;SDS011;25309;48.686;9.170;2023-05-07T04:04:22;2.73;;;2.27;;
39620;SDS011;25309;48.686;9.170;2023-05-07T04:06:49;5.00;;;2.90;;
39620;SDS011;25309;48.686;9.170;2023-05-07T04:09:17;3.23;;;2.50;;
39620;SDS011;25309;48.686;9.170;2023-05-07T04:11:46;4.67;;;2.60;;
39620;SDS011;25309;48.686;9.170;2023-05-07T04:14:13;3.20;;;2.70;;
39620;SDS011;25309;48.686;9.170;2023-05-07T04:16:40;2.90;;;2.60;;
39620;SDS011;25309;48.686;9.170;2023-05-07T04:19:07;3.57;;;2.93;;
39620;SDS011;25309;48.686;9.170;2023-05-07T04:21:36;3.50;;;2.67;;
39620;SDS011;25309;48.686;9.170;2023-05-07T04:24:03;3.80;;;3.00;;
39620;SDS011;25309;48.686;9.170;2023-05-07T04:26:31;3.20;;;2.80;;
39620;SDS011;25309;48.686;9.170;2023-05-07T04:28:58;4.20;;;2.60;;
39620;SDS011;25309;48.686;9.170;2023-05-07T04:31:30;3.47;;;2.63;;
39620;SDS011;25309;48.686;9.170;2023-05-07T04:33:58;3.67;;;2.80;;
39620;SDS011;25309;48.686;9.170;2023-05-07T04:36:26;3.50;;;2.70;;
39620;SDS011;25309;48.686;9.170;2023-05-07T04:38:59;4.00;;;2.70;;
39620;SDS011;25309;48.686;9.170;2023-05-07T04:41:26;3.87;;;2.40;;
39620;SDS011;25309;48.686;9.170;2023-05-07T04:43:55;6.07;;;2.87;;
39620;SDS011;25309;48.686;9.170;2023-05-07T04:46:27;4.30;;;3.00;;
39620;SDS011;25309;48.686;9.170;2023-05-07T04:48:56;3.03;;;2.47;;
39620;SDS011;25309;48.686;9.170;2023-05-07T04:51:23;3.67;;;2.90;;
39620;SDS011;25309;48.686;9.170;2023-05-07T04:53:50;3.83;;;2.77;;
39620;SDS011;25309;48.686;9.170;2023-05-07T04:56:17;3.60;;;2.97;;
39620;SDS011;25309;48.686;9.170;2023-05-07T04:58:45;4.23;;;2.67;;
39620;SDS011;25309;48.686;9.170;2023-05-07T05:01:15;2.97;;;2.20;;
39620;SDS011;25309;48.686;9.170;2023-05-07T05:03:43;3.63;;;2.60;;
39620;SDS011;25309;48.686;9.170;2023-05-07T05:06:10;2.90;;;2.50;;
39620;SDS011;25309;48.686;9.170;2023-05-07T05:08:37;3.77;;;2.70;;
39620;SDS011;25309;48.686;9.170;2023-05-07T05:11:04;4.30;;;3.30;;
39620;SDS011;25309;48.686;9.170;2023-05-07T05:13:33;4.70;;;3.13;;
39620;SDS011;25309;48.686;9.170;2023-05-07T05:16:07;4.10;;;2.80;;
39620;SDS011;25309;48.686;9.170;2023-05-07T05:18:35;3.40;;;2.90;;
39620;SDS011;25309;48.686;9.170;2023-05-07T05:21:02;3.47;;;2.73;;
39620;SDS011;25309;48.686;9.170;2023-05-07T05:23:30;3.97;;;2.97;;
39620;SDS011;25309;48.686;9.170;2023-05-07T05:25:57;3.73;;;2.90;;
39620;SDS011;25309;48.686;9.170;2023-05-07T05:28:27;3.20;;;2.67;;
39620;SDS011;25309;48.686;9.170;2023-05-07T05:30:55;4.77;;;3.17;;
39620;SDS011;25309;48.686;9.170;2023-05-07T05:33:24;3.60;;;3.07;;
39620;SDS011;25309;48.686;9.170;2023-05-07T05:35:53;3.87;;;3.10;;
39620;SDS011;25309;48.686;9.170;2023-05-07T05:38:20;3.90;;;3.20;;
39620;SDS011;25309;48.686;9.170;2023-05-07T05:40:48;3.40;;;2.80;;
39620;SDS011;25309;48.686;9.170;2023-05-07T05:43:15;2.90;;;2.50;;
39620;SDS011;25309;48.686;9.170;2023-05-07T05:45:42;4.13;;;2.87;;
39620;SDS011;25309;48.686;9.170;2023-05-07T05:48:09;4.10;;;2.97;;
39620;SDS011;25309;48.686;9.170;2023-05-07T05:50:37;3.80;;;3.00;;
39620;SDS011;25309;48.686;9.170;2023-05-07T05:53:06;5.67;;;3.33;;
39620;SDS011;25309;48.686;9.170;2023-05-07T05:55:33;4.40;;;3.07;;
39620;SDS011;25309;48.686;9.170;2023-05-07T05:58:00;4.40;;;3.20;;
39620;SDS011;25309;48.686;9.170;2023-05-07T06:00:29;3.60;;;3.10;;
39620;SDS011;25309;48.686;9.170;2023-05-07T06:03:01;5.10;;;3.30;;
39620;SDS011;25309;48.686;9.170;2023-05-07T06:05:28;4.77;;;3.20;;
39620;SDS011;25309;48.686;9.170;2023-05-07T06:07:56;4.77;;;3.17;;
39620;SDS011;25309;48.686;9.170;2023-05-07T06:10:25;3.87;;;3.00;;
39620;SDS011;25309;48.686;9.170;2023-05-07T06:12:53;3.20;;;2.80;;
39620;SDS011;25309;48.686;9.170;2023-05-07T06:15:21;4.60;;;2.87;;
39620;SDS011;25309;48.686;9.170;2023-05-07T06:17:49;4.00;;;3.20;;
39620;SDS011;25309;48.686;9.170;2023-05-07T06:20:16;6.23;;;3.50;;
39620;SDS011;25309;48.686;9.170;2023-05-07T06:22:44;4.63;;;3.33;;
39620;SDS011;25309;48.686;9.170;2023-05-07T06:25:12;4.43;;;3.37;;
39620;SDS011;25309;48.686;9.170;2023-05-07T06:27:42;4.87;;;3.40;;
39620;SDS011;25309;48.686;9.170;2023-05-07T06:30:09;3.93;;;2.83;;
39620;SDS011;25309;48.686;9.170;2023-05-07T06:32:37;4.43;;;3.40;;
39620;SDS011;25309;48.686;9.170;2023-05-07T06:35:07;4.17;;;2.73;;
39620;SDS011;25309;48.686;9.170;2023-05-07T06:37:36;4.13;;;2.90;;
39620;SDS011;25309;48.686;9.170;2023-05-07T06:40:13;3.53;;;3.07;;
39620;SDS011;25309;48.686;9.170;2023-05-07T06:42:42;3.93;;;3.10;;
39620;SDS011;25309;48.686;9.170;2023-05-07T06:45:22;3.80;;;3.00;;
39620;SDS011;25309;48.686;9.170;2023-05-07T06:47:50;3.90;;;3.27;;
39620;SDS011;25309;48.686;9.170;2023-05-07T06:50:17;4.27;;;3.43;;
39620;SDS011;25309;48.686;9.170;2023-05-07T06:52:45;5.20;;;3.47;;
39620;SDS011;25309;48.686;9.170;2023-05-07T06:55:12;4.00;;;2.90;;
39620;SDS011;25309;48.686;9.170;2023-05-07T06:57:39;3.93;;;3.30;;
39620;SDS011;25309;48.686;9.170;2023-05-07T07:00:08;4.53;;;3.03;;
39620;SDS011;25309;48.686;9.170;2023-05-07T07:02:45;3.93;;;3.20;;
39620;SDS011;25309;48.686;9.170;2023-05-07T07:05:14;4.80;;;3.20;;
39620;SDS011;25309;48.686;9.170;2023-05-07T07:07:41;6.10;;;4.00;;
39620;SDS011;25309;48.686;9.170;2023-05-07T07:10:09;6.60;;;5.50;;
39620;SDS011;25309;48.686;9.170;2023-05-07T07:12:36;4.53;;;3.90;;
39620;SDS011;25309;48.686;9.170;2023-05-07T07:15:04;6.10;;;4.03;;
39620;SDS011;25309;48.686;9.170;2023-05-07T07:17:33;4.47;;;4.07;;
39620;SDS011;25309;48.686;9.170;2023-05-07T07:20:00;5.00;;;4.30;;
39620;SDS011;25309;48.686;9.170;2023-05-07T07:22:28;5.43;;;4.13;;
39620;SDS011;25309;48.686;9.170;2023-05-07T07:24:55;4.77;;;4.10;;
39620;SDS011;25309;48.686;9.170;2023-05-07T07:27:23;5.00;;;4.30;;
39620;SDS011;25309;48.686;9.170;2023-05-07T07:29:50;4.70;;;4.03;;
39620;SDS011;25309;48.686;9.170;2023-05-07T07:32:17;4.67;;;3.90;;
39620;SDS011;25309;48.686;9.170;2023-05-07T07:34:46;5.93;;;4.20;;
39620;SDS011;25309;48.686;9.170;2023-05-07T07:37:13;4.70;;;4.07;;
39620;SDS011;25309;48.686;9.170;2023-05-07T07:39:40;5.83;;;3.63;;
39620;SDS011;25309;48.686;9.170;2023-05-07T07:42:08;4.27;;;3.60;;
39620;SDS011;25309;48.686;9.170;2023-05-07T07:44:34;4.60;;;3.90;;
39620;SDS011;25309;48.686;9.170;2023-05-07T07:47:06;5.20;;;4.23;;
39620;SDS011;25309;48.686;9.170;2023-05-07T07:49:33;4.17;;;3.50;;
39620;SDS011;25309;48.686;9.170;2023-05-07T07:52:05;5.27;;;3.77;;
39620;SDS011;25309;48.686;9.170;2023-05-07T07:54:34;3.70;;;3.30;;
39620;SDS011;25309;48.686;9.170;2023-05-07T07:57:02;6.07;;;3.60;;
39620;SDS011;25309;48.686;9.170;2023-05-07T07:59:31;3.90;;;3.23;;
39620;SDS011;25309;48.686;9.170;2023-05-07T08:01:58;4.37;;;3.40;;
39620;SDS011;25309;48.686;9.170;2023-05-07T08:04:28;4.27;;;3.60;;
39620;SDS011;25309;48.686;9.170;2023-05-07T08:06:56;3.97;;;3.27;;
39620;SDS011;25309;48.686;9.170;2023-05-07T08:09:25;4.80;;;3.67;;
39620;SDS011;25309;48.686;9.170;2023-05-07T08:11:54;5.23;;;4.10;;
39620;SDS011;25309;48.686;9.170;2023-05-07T08:14:21;4.87;;;3.70;;
39620;SDS011;25309;48.686;9.170;2023-05-07T08:16:48;3.60;;;3.13;;
39620;SDS011;25309;48.686;9.170;2023-05-07T08:19:15;3.97;;;3.33;;
39620;SDS011;25309;48.686;9.170;2023-05-07T08:21:43;5.00;;;3.70;;
39620;SDS011;25309;48.686;9.170;2023-05-07T08:24:11;4.40;;;3.93;;
39620;SDS011;25309;48.686;9.170;2023-05-07T08:26:40;4.87;;;3.10;;
39620;SDS011;25309;48.686;9.170;2023-05-07T08:29:09;5.40;;;3.17;;
39620;SDS011;25309;48.686;9.170;2023-05-07T08:31:36;3.93;;;3.20;;
39620;SDS011;25309;48.686;9.170;2023-05-07T08:37:24;4.03;;;3.60;;
39620;SDS011;25309;48.686;9.170;2023-05-07T08:39:51;4.60;;;3.37;;
39620;SDS011;25309;48.686;9.170;2023-05-07T08:42:22;3.50;;;2.80;;
39620;SDS011;25309;48.686;9.170;2023-05-07T08:44:51;4.23;;;2.40;;
39620;SDS011;25309;48.686;9.170;2023-05-07T08:47:22;3.37;;;3.00;;
39620;SDS011;25309;48.686;9.170;2023-05-07T08:49:52;4.20;;;3.17;;
39620;SDS011;25309;48.686;9.170;2023-05-07T08:52:22;5.17;;;3.30;;
39620;SDS011;25309;48.686;9.170;2023-05-07T08:54:49;4.10;;;2.90;;
39620;SDS011;25309;48.686;9.170;2023-05-07T08:57:17;3.27;;;2.70;;
39620;SDS011;25309;48.686;9.170;2023-05-07T08:59:48;2.83;;;2.50;;
39620;SDS011;25309;48.686;9.170;2023-05-07T09:02:15;3.60;;;2.40;;
39620;SDS011;25309;48.686;9.170;2023-05-07T09:04:43;3.57;;;2.60;;
39620;SDS011;25309;48.686;9.170;2023-05-07T09:07:16;4.60;;;2.80;;
39620;SDS011;25309;48.686;9.170;2023-05-07T09:09:44;3.40;;;2.23;;
39620;SDS011;25309;48.686;9.170;2023-05-07T09:12:41;3.80;;;2.30;;
39620;SDS011;25309;48.686;9.170;2023-05-07T09:15:23;3.50;;;2.47;;
39620;SDS011;25309;48.686;9.170;2023-05-07T09:17:53;2.47;;;2.00;;
39620;SDS011;25309;48.686;9.170;2023-05-07T09:20:53;3.23;;;2.60;;
39620;SDS011;25309;48.686;9.170;2023-05-07T09:23:45;2.80;;;2.33;;
39620;SDS011;25309;48.686;9.170;2023-05-07T09:26:38;2.57;;;1.90;;
39620;SDS011;25309;48.686;9.170;2023-05-07T09:29:19;2.90;;;2.20;;
39620;SDS011;25309;48.686;9.170;2023-05-07T09:35:39;2.13;;;1.93;;
39620;SDS011;25309;48.686;9.170;2023-05-07T09:38:11;2.67;;;2.30;;
39620;SDS011;25309;48.686;9.170;2023-05-07T09:40:41;3.00;;;2.37;;
39620;SDS011;25309;48.686;9.170;2023-05-07T09:43:13;2.43;;;2.13;;
39620;SDS011;25309;48.686;9.170;2023-05-07T09:46:02;2.40;;;1.93;;
39620;SDS011;25309;48.686;9.170;2023-05-07T09:48:51;1.97;;;1.70;;
39620;SDS011;25309;48.686;9.170;2023-05-07T09:51:33;5.27;;;2.13;;
39620;SDS011;25309;48.686;9.170;2023-05-07T09:54:06;4.47;;;2.10;;
39620;SDS011;25309;48.686;9.170;2023-05-07T09:56:37;3.07;;;2.20;;
39620;SDS011;25309;48.686;9.170;2023-05-07T09:59:09;2.53;;;2.00;;
39620;SDS011;25309;48.686;9.170;2023-05-07T10:01:39;2.13;;;1.90;;
39620;SDS011;25309;48.686;9.170;2023-05-07T10:04:08;3.47;;;1.90;;
39620;SDS011;25309;48.686;9.170;2023-05-07T10:06:39;2.67;;;2.00;;
39620;SDS011;25309;48.686;9.170;2023-05-07T10:09:08;3.47;;;1.77;;
39620;SDS011;25309;48.686;9.170;2023-05-07T10:11:37;3.30;;;1.90;;
39620;SDS011;25309;48.686;9.170;2023-05-07T10:14:06;3.90;;;2.13;;
39620;SDS011;25309;48.686;9.170;2023-05-07T10:16:34;2.20;;;2.00;;
39620;SDS011;25309;48.686;9.170;2023-05-07T10:19:08;2.47;;;2.13;;
39620;SDS011;25309;48.686;9.170;2023-05-07T10:21:44;2.43;;;2.00;;
39620;SDS011;25309;48.686;9.170;2023-05-07T10:24:19;5.23;;;2.27;;
39620;SDS011;25309;48.686;9.170;2023-05-07T10:26:48;2.90;;;1.90;;
39620;SDS011;25309;48.686;9.170;2023-05-07T10:29:21;3.23;;;2.10;;
39620;SDS011;25309;48.686;9.170;2023-05-07T10:31:58;2.37;;;1.90;;
39620;SDS011;25309;48.686;9.170;2023-05-07T10:34:37;2.50;;;1.90;;
39620;SDS011;25309;48.686;9.170;2023-05-07T10:37:09;1.93;;;1.73;;
39620;SDS011;25309;48.686;9.170;2023-05-07T10:39:37;3.13;;;2.10;;
39620;SDS011;25309;48.686;9.170;2023-05-07T10:42:08;3.43;;;1.90;;
39620;SDS011;25309;48.686;9.170;2023-05-07T10:44:37;2.10;;;1.90;;
39620;SDS011;25309;48.686;9.170;2023-05-07T10:47:10;2.40;;;1.90;;
39620;SDS011;25309;48.686;9.170;2023-05-07T10:52:57;3.80;;;1.77;;
39620;SDS011;25309;48.686;9.170;2023-05-07T10:56:23;3.27;;;2.10;;
39620;SDS011;25309;48.686;9.170;2023-05-07T11:02:14;2.43;;;1.87;;
39620;SDS011;25309;48.686;9.170;2023-05-07T11:08:03;2.47;;;1.90;;
39620;SDS011;25309;48.686;9.170;2023-05-07T11:10:50;1.90;;;1.80;;
39620;SDS011;25309;48.686;9.170;2023-05-07T11:13:43;2.77;;;1.87;;
39620;SDS011;25309;48.686;9.170;2023-05-07T11:16:34;2.57;;;1.80;;
39620;SDS011;25309;48.686;9.170;2023-05-07T11:19:13;3.40;;;1.93;;
39620;SDS011;25309;48.686;9.170;2023-05-07T11:21:44;3.03;;;2.00;;
39620;SDS011;25309;48.686;9.170;2023-05-07T11:24:39;3.70;;;2.00;;
39620;SDS011;25309;48.686;9.170;2023-05-07T11:27:07;2.23;;;1.90;;
39620;SDS011;25309;48.686;9.170;2023-05-07T11:29:35;2.20;;;1.80;;
39620;SDS011;25309;48.686;9.170;2023-05-07T11:32:06;3.23;;;1.90;;
39620;SDS011;25309;48.686;9.170;2023-05-07T11:34:39;1.97;;;1.77;;
39620;SDS011;25309;48.686;9.170;2023-05-07T11:37:07;2.53;;;1.87;;
39620;SDS011;25309;48.686;9.170;2023-05-07T11:40:07;1.93;;;1.73;;
39620;SDS011;25309;48.686;9.170;2023-05-07T11:42:36;2.07;;;1.70;;
39620;SDS011;25309;48.686;9.170;2023-05-07T11:45:04;1.90;;;1.80;;
39620;SDS011;25309;48.686;9.170;2023-05-07T11:47:32;2.00;;;1.60;;
39620;SDS011;25309;48.686;9.170;2023-05-07T11:50:02;4.67;;;2.03;;
39620;SDS011;25309;48.686;9.170;2023-05-07T11:52:31;2.87;;;1.87;;
39620;SDS011;25309;48.686;9.170;2023-05-07T11:54:58;2.67;;;1.97;;
39620;SDS011;25309;48.686;9.170;2023-05-07T11:57:27;2.17;;;1.97;;
39620;SDS011;25309;48.686;9.170;2023-05-07T11:59:55;3.17;;;2.10;;
39620;SDS011;25309;48.686;9.170;2023-05-07T12:02:22;2.60;;;2.30;;
39620;SDS011;25309;48.686;9.170;2023-05-07T12:04:51;2.17;;;1.80;;
39620;SDS011;25309;48.686;9.170;2023-05-07T12:07:18;2.97;;;2.10;;
39620;SDS011;25309;48.686;9.170;2023-05-07T12:09:46;2.60;;;1.83;;
39620;SDS011;25309;48.686;9.170;2023-05-07T12:12:14;2.97;;;1.80;;
39620;SDS011;25309;48.686;9.170;2023-05-07T12:14:43;2.10;;;1.90;;
39620;SDS011;25309;48.686;9.170;2023-05-07T12:17:12;2.83;;;2.07;;
39620;SDS011;25309;48.686;9.170;2023-05-07T12:19:41;2.70;;;1.67;;
39620;SDS011;25309;48.686;9.170;2023-05-07T12:22:09;3.33;;;2.13;;
39620;SDS011;25309;48.686;9.170;2023-05-07T12:24:43;4.13;;;2.10;;
39620;SDS011;25309;48.686;9.170;2023-05-07T12:27:11;3.37;;;2.00;;
39620;SDS011;25309;48.686;9.170;2023-05-07T12:29:38;4.50;;;1.80;;
39620;SDS011;25309;48.686;9.170;2023-05-07T12:32:07;3.77;;;1.83;;
39620;SDS011;25309;48.686;9.170;2023-05-07T12:34:39;2.00;;;1.50;;
39620;SDS011;25309;48.686;9.170;2023-05-07T12:37:11;3.53;;;1.60;;
39620;SDS011;25309;48.686;9.170;2023-05-07T12:39:43;5.03;;;1.60;;
39620;SDS011;25309;48.686;9.170;2023-05-07T12:42:14;4.80;;;1.60;;
39620;SDS011;25309;48.686;9.170;2023-05-07T12:44:43;6.73;;;2.17;;
39620;SDS011;25309;48.686;9.170;2023-05-07T12:47:14;5.27;;;2.30;;
39620;SDS011;25309;48.686;9.170;2023-05-07T12:49:41;4.03;;;1.97;;
39620;SDS011;25309;48.686;9.170;2023-05-07T12:52:09;2.23;;;1.40;;
39620;SDS011;25309;48.686;9.170;2023-05-07T12:54:37;3.87;;;1.50;;
39620;SDS011;25309;48.686;9.170;2023-05-07T12:57:05;2.47;;;1.53;;
39620;SDS011;25309;48.686;9.170;2023-05-07T12:59:34;4.77;;;1.60;;
39620;SDS011;25309;48.686;9.170;2023-05-07T13:02:02;3.13;;;1.40;;
39620;SDS011;25309;48.686;9.170;2023-05-07T13:04:31;2.23;;;1.40;;
39620;SDS011;25309;48.686;9.170;2023-05-07T13:06:58;3.30;;;1.47;;
39620;SDS011;25309;48.686;9.170;2023-05-07T13:09:26;1.63;;;1.13;;
39620;SDS011;25309;48.686;9.170;2023-05-07T13:11:55;2.87;;;1.30;;
39620;SDS011;25309;48.686;9.170;2023-05-07T13:14:22;2.37;;;1.20;;
39620;SDS011;25309;48.686;9.170;2023-05-07T13:16:49;2.17;;;1.27;;
39620;SDS011;25309;48.686;9.170;2023-05-07T13:19:16;2.77;;;1.60;;
39620;SDS011;25309;48.686;9.170;2023-05-07T13:21:45;2.00;;;1.30;;
39620;SDS011;25309;48.686;9.170;2023-05-07T13:24:11;1.63;;;1.40;;
39620;SDS011;25309;48.686;9.170;2023-05-07T13:26:38;3.27;;;1.57;;
39620;SDS011;25309;48.686;9.170;2023-05-07T13:29:05;1.97;;;1.40;;
39620;SDS011;25309;48.686;9.170;2023-05-07T13:31:32;2.03;;;1.50;;
39620;SDS011;25309;48.686;9.170;2023-05-07T13:34:00;3.30;;;1.60;;
39620;SDS011;25309;48.686;9.170;2023-05-07T13:36:27;4.63;;;1.83;;
39620;SDS011;25309;48.686;9.170;2023-05-07T13:38:56;2.80;;;1.60;;
39620;SDS011;25309;48.686;9.170;2023-05-07T13:41:25;2.17;;;1.40;;
39620;SDS011;25309;48.686;9.170;2023-05-07T13:43:52;4.93;;;2.00;;
39620;SDS011;25309;48.686;9.170;2023-05-07T13:46:19;6.27;;;2.00;;
39620;SDS011;25309;48.686;9.170;2023-05-07T13:48:46;4.47;;;2.10;;
39620;SDS011;25309;48.686;9.170;2023-05-07T13:51:13;4.73;;;2.63;;
39620;SDS011;25309;48.686;9.170;2023-05-07T13:53:39;4.83;;;2.30;;
39620;SDS011;25309;48.686;9.170;2023-05-07T13:56:08;3.90;;;2.40;;
39620;SDS011;25309;48.686;9.170;2023-05-07T13:58:35;4.20;;;2.40;;
39620;SDS011;25309;48.686;9.170;2023-05-07T14:01:10;3.47;;;2.70;;
39620;SDS011;25309;48.686;9.170;2023-05-07T14:03:37;5.80;;;3.00;;
39620;SDS011;25309;48.686;9.170;2023-05-07T14:06:06;4.00;;;2.83;;
39620;SDS011;25309;48.686;9.170;2023-05-07T14:08:33;4.10;;;2.73;;
39620;SDS011;25309;48.686;9.170;2023-05-07T14:10:59;4.03;;;2.73;;
39620;SDS011;25309;48.686;9.170;2023-05-07T14:13:28;5.53;;;2.70;;
39620;SDS011;25309;48.686;9.170;2023-05-07T14:15:57;5.63;;;2.80;;
39620;SDS011;25309;48.686;9.170;2023-05-07T14:18:24;5.20;;;2.83;;
39620;SDS011;25309;48.686;9.170;2023-05-07T14:20:50;3.60;;;2.63;;
39620;SDS011;25309;48.686;9.170;2023-05-07T14:23:17;3.90;;;2.30;;
39620;SDS011;25309;48.686;9.170;2023-05-07T14:25:45;4.73;;;2.70;;
39620;SDS011;25309;48.686;9.170;2023-05-07T14:28:13;3.27;;;2.30;;
39620;SDS011;25309;48.686;9.170;2023-05-07T14:30:42;2.47;;;2.07;;
39620;SDS011;25309;48.686;9.170;2023-05-07T14:33:09;2.80;;;2.20;;
39620;SDS011;25309;48.686;9.170;2023-05-07T14:35:36;3.37;;;2.17;;
39620;SDS011;25309;48.686;9.170;2023-05-07T14:38:03;4.60;;;2.60;;
39620;SDS011;25309;48.686;9.170;2023-05-07T14:40:30;4.40;;;2.30;;
39620;SDS011;25309;48.686;9.170;2023-05-07T14:42:56;3.13;;;2.30;;
39620;SDS011;25309;48.686;9.170;2023-05-07T14:45:24;4.33;;;2.60;;
39620;SDS011;25309;48.686;9.170;2023-05-07T14:47:53;3.97;;;3.00;;
39620;SDS011;25309;48.686;9.170;2023-05-07T14:50:20;4.50;;;3.00;;
39620;SDS011;25309;48.686;9.170;2023-05-07T14:52:47;4.93;;;3.40;;
39620;SDS011;25309;48.686;9.170;2023-05-07T14:55:14;4.73;;;2.70;;
39620;SDS011;25309;48.686;9.170;2023-05-07T14:57:41;3.23;;;2.63;;
39620;SDS011;25309;48.686;9.170;2023-05-07T15:00:08;3.43;;;2.40;;
39620;SDS011;25309;48.686;9.170;2023-05-07T15:02:36;3.77;;;2.60;;
39620;SDS011;25309;48.686;9.170;2023-05-07T15:05:05;3.83;;;3.17;;
39620;SDS011;25309;48.686;9.170;2023-05-07T15:07:32;3.73;;;3.27;;
39620;SDS011;25309;48.686;9.170;2023-05-07T15:10:00;3.80;;;2.90;;
39620;SDS011;25309;48.686;9.170;2023-05-07T15:12:27;4.10;;;3.10;;
39620;SDS011;25309;48.686;9.170;2023-05-07T15:14:54;3.47;;;2.80;;
39620;SDS011;25309;48.686;9.170;2023-05-07T15:17:21;3.50;;;2.80;;
39620;SDS011;25309;48.686;9.170;2023-05-07T15:19:48;4.73;;;2.50;;